Airfield :
LOGIN :

Register | Disclaimer

   EN    FR    IT 

 










Legend :    VFR   Marginal VFR   IFR   Intensive IFR   Very Intensive IFR
Visi :
Ceiling :
>= 8 km
>= 3000ft
5 to 8 km
1000 to 3000 ft
1500m to 5 km
500 to 1000 ft
800 to 1500m
200 to 500 ft
< 800m
< 200 ft
Symbols :   Thunderstorms  Fog  Heavy snow  Heavy precipitations  Wind > 20 kt
SIGMETs :     Misc.  Thunderstorms  Icing  Turbulence  Mountain Waves  Volcanic Ashes







- Airport Elevation : 776 ft
- IATA code : RMS


ETAR - Ramstein Air Base

CURRENT METAR :
  • 180316Z 23005KT 9999 SCT017 BKN026 OVC055 01/M01 A3000 RMK AO2A CIG 026V055 BKN V SCT SLP172 $

EXPIRED METARs :
  • 180256Z 24008KT 9999 FEW023 FEW029 BKN055 01/M01 A3000 RMK AO2A SLP172 T0007 52017 $
  • 180156Z 25006KT 9999 BKN027 OVC032 01/M01 A2998 RMK AO2A BKN V OVC SLP166 T0011 $
  • 180056Z 23008KT 9999 OVC029 01/M01 A2996 RMK SLP158 T0009 $

TAF TAF ETAR
Valid from the 18 at 02:00 until the 19 at 08:00 UTC


180206Z 1802/1908 25012KT 9999 BKN020 620204 QNH2991INS
BECMG 1804/1805 VRB06KT 6000 BR SCT030 QNH3006INS
TEMPO 1805/1809 4000 BR
BECMG 1808/1809 VRB06KT 9999 NSW SKC QNH3012INS TX04/1813Z TNM02/1806Z
No reported NOTAMs for that airfield.



MET'MAP, your aeronautical weather chart ! - Copyright ORBIFLY December 2007 - Disclaimer

ORBIFLY MET'MAP TEAM :

Programming & Development : Alexandra Zaïnal
Concept & Development : Baudouin d'Aumeries
Co-Development & Prog : Marc-Olivier Méhu
Technical & hardware support : Manuel Goepfert

Contact : metmap@orbifly.com




SOURCES & CREDITS :

   NOAA